Latest Weather Observations for Westmere

IDV60801

Issued at 1:02 pm EDT Friday 19 December 2014 (issued every 30 minutes, with the page automatically refreshed every 10 minutes)

About weather observations | Map of weather stations | Latest weather observations for VIC | Other Formats
Station Details ID: 089112 Name: WESTMERE Lat: -37.71 Lon: 142.94 Height: 226.0 m
Data from the previous 72 hours. | See also: Recent months at Westmere
Date/Time
EDT
Temp
°C
App
Temp
°C
Dew
Point
Rel
Hum
%
Delta-T
°C
Wind Press
QNH
hPa
Press
MSL
hPa
Rain
since 9 am
mm
Dir
 
Spd
km/h
Gust
km/h
Spd
kts
Gust
kts
19/01:00pm 17.1 11.8 4.8 44 5.9 SW 22 39 12 21 1018.5 1018.0 0.0
19/12:30pm 17.7 12.6 5.9 46 5.8 SSW 22 30 12 16 1018.5 1018.0 0.0
19/12:00pm 16.3 11.6 5.3 48 5.3 WSW 19 30 10 16 1018.5 1018.0 0.0
19/11:30am 16.3 12.0 7.0 54 4.7 WSW 19 26 10 14 1018.5 1018.0 0.0
19/11:00am 15.9 12.2 7.9 59 4.1 SW 17 28 9 15 1018.6 1018.1 0.0
19/10:30am 14.4 10.6 7.5 63 3.4 SW 17 24 9 13 1018.7 1018.2 0.0
19/10:00am 13.4 10.5 8.0 70 2.7 WSW 13 20 7 11 1018.5 1018.0 0.0
19/09:30am 12.5 8.6 8.6 77 2.0 WSW 19 24 10 13 1018.5 1018.0 0.0
19/09:00am 12.7 9.4 8.0 73 2.3 SW 15 22 8 12 1018.2 1017.7 5.8
19/08:30am 12.7 10.4 9.0 78 1.9 WSW 11 17 6 9 1017.9 1017.4 5.8
19/08:00am 10.4 8.7 8.2 86 1.1 W 7 13 4 7 1017.7 1017.2 5.8
19/07:30am 9.4 7.5 7.7 89 0.8 W 7 9 4 5 1017.2 1016.7 5.8
19/07:00am 9.0 7.2 8.1 94 0.4 WNW 7 9 4 5 1016.5 1016.1 5.8
19/06:30am 8.3 6.6 7.5 95 0.4 WNW 6 7 3 4 1016.2 1015.8 5.8
19/06:00am 8.2 6.0 7.8 97 0.2 WNW 9 11 5 6 1016.1 1015.7 5.8
19/05:30am 7.3 5.4 6.6 95 0.3 WNW 6 9 3 5 1015.8 1015.4 5.8
19/05:00am 8.9 7.0 7.7 92 0.6 W 7 11 4 6 1015.7 1015.2 5.8
19/04:30am 9.7 7.5 8.0 89 0.8 WSW 9 15 5 8 1015.4 1014.9 5.8
19/04:00am 9.4 6.2 8.3 93 0.5 WSW 15 22 8 12 1015.1 1014.6 5.8
19/03:30am 9.2 7.5 8.3 94 0.4 W 7 13 4 7 1015.0 1014.5 5.8
19/03:00am 8.5 6.8 7.7 95 0.4 WNW 6 7 3 4 1014.8 1014.3 5.8
19/02:30am 8.9 7.0 7.7 92 0.6 WNW 7 9 4 5 1015.0 1014.5 5.8
19/02:00am 9.6 7.5 8.2 91 0.7 W 9 13 5 7 1015.1 1014.6 5.8
19/01:30am 8.3 6.3 7.1 92 0.6 NW 7 9 4 5 1015.0 1014.5 5.8
19/01:00am 7.6 5.4 6.2 91 0.6 NW 7 7 4 4 1014.8 1014.3 5.8
19/12:30am 8.1 6.1 6.9 92 0.6 WNW 7 9 4 5 1014.8 1014.3 5.8
19/12:00am 9.4 7.8 7.8 90 0.8 W 6 9 3 5 1014.8 1014.3 5.8
 
Date/Time
EDT
Temp
°C
App
Temp
°C
Dew
Point
Rel
Hum
%
Delta-T
°C
Wind Press
QNH
hPa
Press
MSL
hPa
Rain
since 9 am
mm
Dir
 
Spd
km/h
Gust
km/h
Spd
kts
Gust
kts
18/11:30pm 10.2 8.4 8.1 87 1.0 WSW 7 11 4 6 1014.7 1014.2 5.8
18/11:00pm 10.3 7.7 7.9 85 1.2 SW 11 15 6 8 1014.7 1014.2 5.8
18/10:30pm 10.5 8.3 7.9 84 1.3 SW 9 11 5 6 1014.3 1013.8 5.8
18/10:00pm 11.3 9.2 8.2 81 1.5 SW 9 13 5 7 1014.1 1013.6 5.8
18/09:30pm 12.1 9.2 8.0 76 2.0 SW 13 19 7 10 1013.8 1013.3 5.8
18/09:00pm 12.7 9.7 7.8 72 2.4 SW 13 20 7 11 1013.5 1013.0 5.8
18/08:30pm 13.4 9.2 7.6 68 2.9 SSW 19 26 10 14 1012.9 1012.4 5.8
18/08:00pm 14.0 11.0 9.2 73 2.5 SW 15 20 8 11 1012.2 1011.8 5.8
18/07:30pm 14.1 10.6 10.3 78 2.0 SW 19 26 10 14 1011.7 1011.2 5.8
18/07:00pm 13.9 11.0 10.9 82 1.6 WSW 17 26 9 14 1011.3 1010.8 5.8
18/06:30pm 12.8 8.6 11.0 89 1.0 SW 24 33 13 18 1011.2 1010.7 5.8
18/06:00pm 12.7 7.8 11.4 92 0.7 WSW 28 39 15 21 1010.8 1010.3 5.6
18/05:30pm 17.0 12.3 9.4 61 4.0 SW 24 39 13 21 1009.6 1009.1 4.6
18/05:00pm 15.7 10.3 9.4 66 3.3 WSW 28 43 15 23 1009.6 1009.1 4.6
18/04:30pm 14.6 10.0 12.3 86 1.3 SW 28 41 15 22 1009.4 1008.9 4.6
18/04:14pm 14.3 10.5 11.1 81 1.7 WSW 22 43 12 23 1009.3 1008.8 4.6
18/04:00pm 14.9 12.7 12.2 84 1.5 WSW 15 24 8 13 1009.0 1008.5 4.6
18/03:30pm 14.6 12.9 13.5 93 0.6 SW 15 20 8 11 1008.6 1008.1 4.6
18/03:00pm 12.8 9.2 11.7 93 0.6 SW 22 32 12 17 1008.7 1008.2 4.4
18/02:30pm 14.7 10.9 12.4 86 1.3 W 24 35 13 19 1008.2 1007.6 4.0
18/02:00pm 14.0 11.2 13.1 94 0.5 W 20 28 11 15 1008.2 1007.6 4.0
18/01:34pm 12.6 7.9 12.0 96 0.3 W 28 46 15 25 1008.1 1007.5 3.4
18/01:30pm 12.5 7.0 11.7 95 0.4 W 32 46 17 25 1008.0 1007.4 3.2
18/01:23pm 13.0 7.6 12.2 95 0.4 W 32 50 17 27 1008.1 1007.5 2.6
18/01:17pm 13.9 8.6 11.4 85 1.3 WNW 30 50 16 27 1008.0 1007.4 1.0
18/01:00pm 18.4 14.3 7.8 50 5.5 NNW 19 32 10 17 1006.7 1006.2 0.0
18/12:30pm 17.3 12.4 8.4 56 4.6 NNW 24 33 13 18 1007.1 1006.6 0.0
18/12:00pm 16.9 12.8 7.8 55 4.7 NW 19 32 10 17 1007.2 1006.7 0.0
18/11:30am 16.5 12.2 7.7 56 4.5 WNW 20 26 11 14 1007.6 1007.1 0.0
18/11:00am 16.9 11.6 6.7 51 5.1 NW 24 35 13 19 1007.3 1006.8 0.0
18/10:30am 17.4 11.6 6.3 48 5.5 WNW 26 37 14 20 1007.5 1007.0 0.0
18/10:00am 17.3 11.4 5.9 47 5.6 WNW 26 37 14 20 1007.2 1006.7 0.0
18/09:30am 18.2 12.3 5.8 44 6.1 NW 26 43 14 23 1006.8 1006.3 0.0
18/09:00am 17.1 12.7 6.6 50 5.3 WNW 19 28 10 15 1007.0 1006.5 0.0
18/08:30am 16.1 12.5 6.8 54 4.6 NW 15 28 8 15 1007.0 1006.5 0.0
18/08:00am 14.0 10.4 6.8 62 3.5 NW 15 20 8 11 1006.7 1006.2 0.0
18/07:30am 12.4 10.1 7.5 72 2.4 NNW 9 17 5 9 1006.5 1006.0 0.0
18/07:00am 8.4 6.4 6.4 87 0.9 N 6 9 3 5 1006.4 1005.9 0.0
18/06:30am 6.6 3.9 5.6 93 0.5 NNW 9 9 5 5 1006.0 1005.5 0.0
18/06:00am 4.5 1.9 3.2 91 0.5 NNW 6 6 3 3 1005.8 1005.3 0.0
18/05:30am 6.1 3.3 5.1 93 0.4 NW 9 13 5 7 1005.7 1005.2 0.0
18/05:00am 5.2 2.7 4.0 92 0.5 NNW 6 9 3 5 1005.6 1005.1 0.0
18/04:30am 5.3 3.2 3.8 90 0.6 NNW 4 6 2 3 1005.4 1004.9 0.0
18/04:00am 6.0 4.7 4.3 89 0.7 CALM 0 0 0 0 1005.8 1005.3 0.0
18/03:30am 6.5 5.2 4.2 85 1.0 CALM 0 0 0 0 1005.8 1005.3 0.0
18/03:00am 7.3 6.2 5.1 86 1.0 CALM 0 0 0 0 1006.1 1005.6 0.0
18/02:30am 8.2 7.2 5.8 85 1.1 CALM 0 0 0 0 1006.3 1005.8 0.0
18/02:00am 7.4 5.6 5.2 86 1.0 SSE 4 6 2 3 1006.5 1006.0 0.0
18/01:30am 7.1 4.6 4.6 84 1.1 SSE 7 7 4 4 1006.9 1006.4 0.0
18/01:00am 8.6 6.3 5.5 81 1.4 S 7 9 4 5 1007.2 1006.7 0.0
18/12:30am 9.4 6.7 5.8 78 1.7 SSW 9 9 5 5 1007.4 1006.9 0.0
18/12:00am 9.5 6.9 5.9 78 1.7 S 9 11 5 6 1007.5 1007.0 0.0
 
Date/Time
EDT
Temp
°C
App
Temp
°C
Dew
Point
Rel
Hum
%
Delta-T
°C
Wind Press
QNH
hPa
Press
MSL
hPa
Rain
since 9 am
mm
Dir
 
Spd
km/h
Gust
km/h
Spd
kts
Gust
kts
17/11:30pm 10.0 7.7 5.6 74 2.0 S 7 9 4 5 1007.7 1007.2 0.0
17/11:00pm 11.2 8.6 5.9 70 2.5 S 9 11 5 6 1008.1 1007.5 0.0
17/10:30pm 12.3 9.4 6.4 67 2.8 S 11 15 6 8 1008.2 1007.6 0.0
17/10:00pm 12.9 10.3 6.3 64 3.2 S 9 13 5 7 1008.1 1007.5 0.0
17/09:30pm 13.9 10.6 6.3 60 3.7 S 13 17 7 9 1008.1 1007.5 0.0
17/09:00pm 15.2 11.5 6.2 55 4.4 S 15 22 8 12 1008.0 1007.4 0.0
17/08:30pm 16.7 12.6 6.2 50 5.2 S 17 20 9 11 1007.5 1007.0 0.0
17/08:00pm 18.1 13.6 6.3 46 5.9 S 19 28 10 15 1007.3 1006.8 0.0
17/07:30pm 19.3 15.2 6.1 42 6.6 SSE 17 22 9 12 1006.9 1006.4 0.0
17/07:00pm 19.6 14.5 6.0 41 6.8 S 22 30 12 16 1006.9 1006.4 0.0
17/06:30pm 21.3 17.3 3.0 30 8.8 WSW 13 22 7 12 1006.7 1006.2 0.0
17/06:00pm 21.3 16.6 3.0 30 8.8 SW 17 30 9 16 1006.7 1006.2 0.0
17/05:30pm 21.8 16.7 3.0 29 9.0 WSW 19 30 10 16 1006.8 1006.3 0.0
17/05:00pm 21.1 18.2 2.4 29 8.9 SW 7 20 4 11 1007.0 1006.5 0.0
17/04:30pm 22.4 18.7 2.5 27 9.5 WSW 11 35 6 19 1006.9 1006.4 0.0
17/04:00pm 20.8 16.4 2.6 30 8.6 WSW 15 26 8 14 1007.1 1006.6 0.0
17/03:30pm 20.5 15.3 2.3 30 8.5 W 19 33 10 18 1007.6 1007.1 0.0
17/03:00pm 20.3 15.9 2.6 31 8.4 SSW 15 28 8 15 1008.0 1007.4 0.0
17/02:30pm 20.1 15.5 1.5 29 8.6 SW 15 28 8 15 1008.2 1007.6 0.0
17/02:00pm 19.4 14.1 1.9 31 8.1 SW 19 28 10 15 1008.5 1008.0 0.0
17/01:30pm 18.9 15.2 2.3 33 7.7 SW 11 24 6 13 1008.7 1008.2 0.0
17/01:00pm 20.5 16.6 3.3 32 8.3 SW 13 30 7 16 1009.0 1008.5 0.0
17/12:30pm 17.9 14.1 1.8 34 7.3 W 11 24 6 13 1009.2 1008.7 0.0
17/12:00pm 18.6 14.6 2.9 35 7.4 SW 13 28 7 15 1009.3 1008.8 0.0
17/11:30am 17.4 13.2 3.7 40 6.5 WSW 15 30 8 16 1009.3 1008.8 0.0
17/11:00am 16.4 12.0 2.8 40 6.3 WSW 15 24 8 13 1009.4 1008.9 0.0
17/10:30am 16.0 12.0 4.7 47 5.4 WSW 15 24 8 13 1009.6 1009.1 0.0
17/10:00am 15.5 12.1 3.9 46 5.4 W 11 19 6 10 1009.8 1009.3 0.0
17/09:30am 14.0 10.5 5.4 56 4.1 WSW 13 22 7 12 1009.9 1009.4 0.0
17/09:00am 14.0 11.2 7.1 63 3.4 W 11 17 6 9 1009.9 1009.4 0.6
17/08:30am 13.1 10.3 6.9 66 3.0 WNW 11 15 6 8 1009.9 1009.4 0.6
17/08:00am 11.7 9.0 7.4 75 2.1 WNW 11 15 6 8 1009.5 1009.0 0.6
17/07:30am 9.4 6.7 7.3 87 1.0 NW 11 13 6 7 1009.3 1008.8 0.6
17/07:00am 7.5 5.3 6.3 92 0.6 NW 7 9 4 5 1008.9 1008.4 0.6
17/06:30am 6.7 4.6 5.7 93 0.5 NW 6 7 3 4 1008.4 1007.9 0.6
17/06:00am 7.0 5.0 6.1 94 0.4 NW 6 6 3 3 1007.9 1007.3 0.6
17/05:30am 6.0 3.8 5.3 95 0.3 NW 6 7 3 4 1007.4 1006.9 0.6
17/05:00am 5.8 3.5 4.9 94 0.4 NW 6 7 3 4 1007.0 1006.5 0.6
17/04:30am 5.9 3.6 4.9 93 0.4 NW 6 6 3 3 1006.8 1006.3 0.6
17/04:00am 6.0 4.8 4.8 92 0.5 CALM 0 6 0 3 1006.9 1006.4 0.6
17/03:30am 6.3 4.0 4.9 91 0.6 NW 6 7 3 4 1006.7 1006.2 0.6
17/03:00am 6.6 3.8 5.1 90 0.7 NW 9 9 5 5 1006.7 1006.2 0.6
17/02:30am 7.1 4.6 4.9 86 1.0 NW 7 9 4 5 1006.8 1006.3 0.6
17/02:00am 8.6 6.4 6.2 85 1.1 NW 7 9 4 5 1006.8 1006.3 0.6
17/01:30am 8.0 5.7 5.5 84 1.1 NW 7 9 4 5 1006.9 1006.4 0.6
17/01:00am 9.5 6.5 6.0 79 1.6 WNW 11 15 6 8 1006.7 1006.2 0.6
17/12:30am 10.1 7.4 5.7 74 2.0 WNW 9 15 5 8 1006.5 1006.0 0.6
17/12:00am 10.1 7.4 5.5 73 2.1 WNW 9 13 5 7 1006.3 1005.8 0.6
 
Date/Time
EDT
Temp
°C
App
Temp
°C
Dew
Point
Rel
Hum
%
Delta-T
°C
Wind Press
QNH
hPa
Press
MSL
hPa
Rain
since 9 am
mm
Dir
 
Spd
km/h
Gust
km/h
Spd
kts
Gust
kts
16/11:30pm 10.3 7.1 5.3 71 2.3 W 11 17 6 9 1006.3 1005.8 0.6
16/11:00pm 11.2 7.5 6.1 71 2.4 W 15 24 8 13 1006.3 1005.8 0.6
16/10:30pm 12.1 6.9 5.7 65 3.0 WSW 22 39 12 21 1006.0 1005.5 0.6
16/10:00pm 12.5 6.6 5.9 64 3.2 WSW 26 35 14 19 1005.7 1005.2 0.6
16/09:30pm 12.9 7.2 5.1 59 3.7 WSW 24 33 13 18 1005.1 1004.6 0.6
16/09:00pm 13.5 7.4 4.9 56 4.1 WSW 26 46 14 25 1004.6 1004.1 0.6
16/08:30pm 14.0 8.1 5.6 57 4.0 WSW 26 44 14 24 1004.1 1003.5 0.6
16/08:14pm 14.6 8.2 5.1 53 4.5 WSW 28 46 15 25 1003.8 1003.2 0.6
16/08:00pm 15.0 8.3 5.8 54 4.5 WSW 30 46 16 25 1003.4 1002.8 0.6
16/07:30pm 15.1 7.7 5.0 51 4.8 W 33 57 18 31 1002.7 1002.2 0.6
16/07:26pm 15.6 8.6 5.8 52 4.8 W 32 57 17 31 1002.5 1002.0 0.6
16/07:00pm 15.0 9.6 8.0 63 3.6 W 26 39 14 21 1002.0 1001.5 0.6
16/06:30pm 12.9 4.3 8.0 72 2.4 WSW 43 67 23 36 1001.8 1001.3 0.6
16/06:24pm 12.0 4.0 5.9 66 2.9 W 37 67 20 36 1001.6 1001.1 0.6
16/06:00pm 17.3 9.3 7.4 52 5.1 W 39 61 21 33 1000.3 999.7 0.4
16/05:30pm 16.6 7.7 6.7 52 4.9 W 43 72 23 39 999.7 999.1 0.4
16/05:20pm 15.9 7.5 7.4 57 4.3 W 41 69 22 37 999.7 999.1 0.4
16/05:07pm 16.1 10.6 10.4 69 3.0 W 30 50 16 27 999.5 998.9 0.2
16/05:00pm 16.9 11.0 10.5 66 3.5 W 32 46 17 25 999.4 998.8 0.2
16/04:30pm 16.7 8.7 8.9 60 4.1 WNW 41 65 22 35 999.1 998.5 0.2
16/04:01pm 18.8 11.7 9.6 55 4.9 WNW 37 59 20 32 998.3 997.8 0.2
16/04:00pm 19.0 12.0 10.0 56 4.9 WNW 37 56 20 30 998.5 998.0 0.2
16/03:37pm 17.1 10.0 12.2 73 2.7 W 41 61 22 33 998.2 997.7 0.2
16/03:30pm 15.9 9.0 12.8 82 1.7 W 41 57 22 31 998.2 997.7 0.2
16/03:00pm 15.4 7.9 13.8 90 0.9 W 46 72 25 39 997.5 997.0 0.2
16/02:55pm 16.0 7.7 12.6 80 1.9 W 48 72 26 39 997.0 996.5 0.0
16/02:53pm 18.0 9.3 11.3 65 3.7 WNW 48 72 26 39 997.0 996.5 0.0
16/02:35pm 23.5 15.5 5.9 32 9.0 NW 37 56 20 30 995.3 994.7 0.0
16/02:30pm 23.8 16.2 5.7 31 9.3 WNW 35 46 19 25 995.3 994.7 0.0
16/02:00pm 23.6 15.1 3.0 26 10.1 WNW 37 57 20 31 995.6 995.0 0.0
16/01:56pm 23.9 16.7 3.2 26 10.1 WNW 30 52 16 28 995.3 994.7 0.0
16/01:30pm 25.0 17.3 2.4 23 11.0 WNW 32 48 17 26 995.3 994.7 0.0
16/01:23pm 25.1 18.2 2.5 23 11.0 NW 28 48 15 26 995.3 994.7 0.0

Other Formats:

Comma delimited format used in spreadsheet applications
http://www.bom.gov.au/fwo/IDV60801/IDV60801.95840.axf

JavaScript Object Notation format (JSON) in row-major order
http://www.bom.gov.au/fwo/IDV60801/IDV60801.95840.json